createdAt,value
2018-06-09T00:00:23.335Z,59.22
2018-06-09T00:01:23.320Z,58.83
2018-06-09T00:02:23.307Z,59.22
2018-06-09T00:03:23.309Z,59.22
2018-06-09T00:04:23.276Z,59.31
2018-06-09T00:05:23.263Z,59.31
2018-06-09T00:06:23.249Z,58.83
2018-06-09T00:07:23.233Z,59.02
2018-06-09T00:08:23.221Z,58.92
2018-06-09T00:09:23.215Z,58.92
2018-06-09T00:10:23.189Z,58.92
2018-06-09T00:11:23.176Z,58.92
2018-06-09T00:12:23.168Z,58.83
2018-06-09T00:13:23.148Z,59.02
2018-06-09T00:14:23.142Z,58.92
2018-06-09T00:15:23.116Z,59.12
2018-06-09T00:16:23.104Z,58.83
2018-06-09T00:17:23.089Z,58.92
2018-06-09T00:18:23.073Z,59.09
2018-06-09T00:19:23.324Z,59.02
2018-06-09T00:20:23.043Z,59.12
2018-06-09T00:21:23.032Z,58.99
2018-06-09T00:22:23.016Z,58.54
2018-06-09T00:23:23.001Z,58.73
2018-06-09T00:24:22.986Z,58.25
2018-06-09T00:25:22.989Z,58.42
2018-06-09T00:26:22.957Z,58.51
2018-06-09T00:27:22.944Z,58.32
2018-06-09T00:28:22.929Z,58.51
2018-06-09T00:29:22.917Z,58.45
2018-06-09T00:30:22.914Z,58.83
2018-06-09T00:31:22.888Z,58.80
2018-06-09T00:32:22.870Z,58.54
2018-06-09T00:33:22.857Z,58.03
2018-06-09T00:34:22.841Z,58.61
2018-06-09T00:35:22.832Z,58.42
2018-06-09T00:36:22.825Z,58.42
2018-06-09T00:37:22.798Z,58.42
2018-06-09T00:38:22.781Z,58.42
2018-06-09T00:39:22.768Z,58.42
2018-06-09T00:40:22.756Z,58.42
2018-06-09T00:41:22.750Z,58.51
2018-06-09T00:42:22.724Z,58.61
2018-06-09T00:43:22.712Z,58.70
2018-06-09T00:44:22.700Z,58.80
2018-06-09T00:45:22.682Z,58.70
2018-06-09T00:46:22.946Z,58.51
2018-06-09T00:47:22.659Z,58.61
2018-06-09T00:48:22.637Z,58.70
2018-06-09T00:49:22.623Z,58.80
2018-06-09T00:50:22.612Z,58.61
2018-06-09T00:51:22.595Z,58.22
2018-06-09T00:52:22.591Z,58.70
2018-06-09T00:53:22.572Z,58.13
2018-06-09T00:54:22.549Z,58.70
2018-06-09T00:55:22.535Z,58.22
2018-06-09T00:56:22.520Z,58.13
2018-06-09T00:57:22.781Z,58.61
2018-06-09T00:58:22.499Z,58.51
2018-06-09T00:59:22.476Z,58.70
2018-06-09T01:00:22.467Z,58.51
2018-06-09T01:01:22.449Z,58.70
2018-06-09T01:02:22.433Z,58.51
2018-06-09T01:03:22.427Z,58.42
2018-06-09T01:04:22.403Z,58.61
2018-06-09T01:05:22.387Z,58.61
2018-06-09T01:06:22.373Z,58.61
2018-06-09T01:07:22.359Z,58.22
2018-06-09T01:08:22.361Z,58.51
2018-06-09T01:09:22.330Z,58.61
2018-06-09T01:10:22.319Z,58.61
2018-06-09T01:11:22.300Z,58.61
2018-06-09T01:12:22.287Z,58.22
2018-06-09T01:13:22.273Z,58.51
2018-06-09T01:14:22.273Z,58.42
2018-06-09T01:15:22.242Z,58.32
2018-06-09T01:16:22.227Z,58.03
2018-06-09T01:17:22.214Z,58.39
2018-06-09T01:18:22.209Z,58.48
2018-06-09T01:19:22.183Z,58.48
2018-06-09T01:20:22.179Z,58.39
2018-06-09T01:21:22.154Z,58.29
2018-06-09T01:22:22.138Z,58.77
2018-06-09T01:23:22.127Z,58.77
2018-06-09T01:24:22.111Z,58.29
2018-06-09T01:25:22.107Z,58.48
2018-06-09T01:26:22.081Z,58.48
2018-06-09T01:27:22.064Z,58.39
2018-06-09T01:28:22.054Z,58.58
2018-06-09T01:29:22.036Z,58.58
2018-06-09T01:30:22.031Z,58.67
2018-06-09T01:31:22.018Z,58.58
2018-06-09T01:32:21.991Z,58.67
2018-06-09T01:33:21.973Z,58.77
2018-06-09T01:34:21.959Z,58.67
2018-06-09T01:35:21.983Z,58.58
2018-06-09T01:36:21.931Z,58.39
2018-06-09T01:37:21.918Z,58.55
2018-06-09T01:38:21.901Z,58.64
2018-06-09T01:39:21.888Z,58.36
2018-06-09T01:40:21.874Z,59.32
2018-06-09T01:41:21.875Z,59.51
2018-06-09T01:42:21.847Z,58.94
2018-06-09T01:43:21.832Z,59.41
2018-06-09T01:44:21.815Z,59.51
2018-06-09T01:45:21.797Z,59.22
2018-06-09T01:46:21.782Z,59.61
2018-06-09T01:47:21.776Z,59.41
2018-06-09T01:48:21.751Z,60.18
2018-06-09T01:49:21.738Z,59.70
2018-06-09T01:50:21.723Z,59.12
2018-06-09T01:51:21.715Z,59.51
2018-06-09T01:52:21.703Z,59.61
2018-06-09T01:53:21.678Z,59.51
2018-06-09T01:54:21.664Z,59.22
2018-06-09T01:55:21.649Z,59.03
2018-06-09T01:56:21.635Z,58.84
2018-06-09T01:57:21.634Z,59.22
2018-06-09T01:58:21.603Z,59.12
2018-06-09T01:59:21.591Z,59.22
2018-06-09T02:00:21.575Z,59.22
2018-06-09T02:01:21.562Z,59.32
2018-06-09T02:02:21.543Z,58.36
2018-06-09T02:03:21.544Z,58.74
2018-06-09T02:04:21.514Z,58.23
2018-06-09T02:05:21.499Z,58.45
2018-06-09T02:06:21.485Z,58.52
2018-06-09T02:07:21.502Z,58.42
2018-06-09T02:08:21.470Z,58.71
2018-06-09T02:09:21.442Z,58.14
2018-06-09T02:10:21.424Z,58.23
2018-06-09T02:11:21.408Z,58.33
2018-06-09T02:12:21.395Z,58.33
2018-06-09T02:13:21.383Z,59.09
2018-06-09T02:14:21.375Z,59.00
2018-06-09T02:15:21.351Z,58.71
2018-06-09T02:16:21.336Z,59.09
2018-06-09T02:17:21.320Z,59.29
2018-06-09T02:18:21.306Z,59.09
2018-06-09T02:19:21.309Z,59.67
2018-06-09T02:20:21.276Z,59.67
2018-06-09T02:21:21.262Z,60.35
2018-06-09T02:22:21.246Z,60.15
2018-06-09T02:23:21.230Z,60.05
2018-06-09T02:24:21.215Z,60.05
2018-06-09T02:25:21.212Z,60.35
2018-06-09T02:26:21.190Z,60.05
2018-06-09T02:27:21.168Z,59.96
2018-06-09T02:28:21.158Z,60.15
2018-06-09T02:29:21.141Z,60.44
2018-06-09T02:30:21.137Z,60.82
2018-06-09T02:31:21.111Z,60.63
2018-06-09T02:32:21.095Z,60.72
2018-06-09T02:33:21.081Z,60.63
2018-06-09T02:34:21.069Z,60.72
2018-06-09T02:35:21.069Z,60.53
2018-06-09T02:36:21.036Z,60.63
2018-06-09T02:37:21.023Z,60.05
2018-06-09T02:38:21.006Z,59.89
2018-06-09T02:39:20.993Z,59.29
2018-06-09T02:40:20.976Z,59.41
2018-06-09T02:41:20.977Z,59.19
2018-06-09T02:42:20.946Z,58.84
2018-06-09T02:43:20.935Z,58.45
2018-06-09T02:44:20.916Z,58.36
2018-06-09T02:45:20.901Z,58.36
2018-06-09T02:46:20.884Z,57.97
2018-06-09T02:47:20.881Z,57.78
2018-06-09T02:48:20.861Z,57.88
2018-06-09T02:49:20.840Z,57.21
2018-06-09T02:50:20.829Z,57.11
2018-06-09T02:51:20.809Z,57.21
2018-06-09T02:52:20.816Z,57.21
2018-06-09T02:53:20.781Z,57.01
2018-06-09T02:54:20.764Z,57.30
2018-06-09T02:55:20.750Z,57.01
2018-06-09T02:56:20.735Z,57.01
2018-06-09T02:57:20.731Z,57.59
2018-06-09T02:58:20.711Z,58.26
2018-06-09T02:59:20.692Z,58.17
2018-06-09T03:00:20.676Z,58.07
2018-06-09T03:01:20.661Z,58.17
2018-06-09T03:02:20.919Z,58.26
2018-06-09T03:03:20.630Z,58.07
2018-06-09T03:04:20.615Z,57.97
2018-06-09T03:05:20.601Z,58.26
2018-06-09T03:06:20.586Z,58.17
2018-06-09T03:07:20.572Z,58.26
2018-06-09T03:08:20.875Z,58.17
2018-06-09T03:09:20.544Z,57.97
2018-06-09T03:10:20.525Z,57.68
2018-06-09T03:11:20.512Z,57.88
2018-06-09T03:12:20.502Z,57.78
2018-06-09T03:13:20.482Z,57.30
2018-06-09T03:14:20.477Z,57.59
2018-06-09T03:15:20.454Z,57.21
2018-06-09T03:16:20.437Z,57.11
2018-06-09T03:17:20.422Z,57.01
2018-06-09T03:18:20.405Z,57.11
2018-06-09T03:19:20.401Z,57.01
2018-06-09T03:20:20.376Z,56.92
2018-06-09T03:21:20.363Z,56.34
2018-06-09T03:22:20.346Z,55.96
2018-06-09T03:23:20.331Z,56.15
2018-06-09T03:24:20.332Z,56.15
2018-06-09T03:25:20.303Z,56.34
2018-06-09T03:26:20.286Z,55.77
2018-06-09T03:27:20.273Z,55.86
2018-06-09T03:28:20.259Z,55.67
2018-06-09T03:29:20.243Z,55.38
2018-06-09T03:30:20.243Z,55.47
2018-06-09T03:31:20.214Z,55.57
2018-06-09T03:32:20.203Z,55.10
2018-06-09T03:33:20.184Z,55.00
2018-06-09T03:34:20.171Z,55.29
2018-06-09T03:35:20.153Z,55.19
2018-06-09T03:36:20.152Z,55.00
2018-06-09T03:37:20.124Z,54.71
2018-06-09T03:38:20.110Z,55.02
2018-06-09T03:39:20.095Z,54.83
2018-06-09T03:40:20.085Z,54.25
2018-06-09T03:41:20.346Z,54.25
2018-06-09T03:42:20.054Z,54.45
2018-06-09T03:43:20.099Z,54.45
2018-06-09T03:44:20.023Z,54.83
2018-06-09T03:45:20.009Z,54.74
2018-06-09T03:46:19.991Z,54.35
2018-06-09T03:47:19.987Z,54.74
2018-06-09T03:48:19.962Z,54.06
2018-06-09T03:49:19.947Z,54.83
2018-06-09T03:50:19.932Z,54.83
2018-06-09T03:51:19.920Z,54.74
2018-06-09T03:52:19.913Z,54.19
2018-06-09T03:53:19.890Z,53.68
2018-06-09T03:54:19.874Z,54.09
2018-06-09T03:55:19.857Z,54.00
2018-06-09T03:56:19.846Z,53.97
2018-06-09T03:57:19.845Z,54.09
2018-06-09T03:58:19.812Z,54.09
2018-06-09T03:59:19.800Z,54.00
2018-06-09T04:00:19.785Z,54.16
2018-06-09T04:01:19.773Z,53.87
2018-06-09T04:02:19.755Z,54.09
2018-06-09T04:03:19.757Z,54.09
2018-06-09T04:04:19.728Z,53.70
2018-06-09T04:05:19.713Z,54.19
2018-06-09T04:06:19.696Z,53.70
2018-06-09T04:07:19.684Z,53.61
2018-06-09T04:08:19.668Z,54.09
2018-06-09T04:09:19.665Z,53.90
2018-06-09T04:10:19.640Z,54.00
2018-06-09T04:11:19.627Z,54.00
2018-06-09T04:12:19.610Z,54.19
2018-06-09T04:13:19.594Z,53.61
2018-06-09T04:14:19.593Z,53.70
2018-06-09T04:15:19.566Z,54.00
2018-06-09T04:16:19.550Z,53.90
2018-06-09T04:17:19.536Z,54.00
2018-06-09T04:18:19.535Z,53.61
2018-06-09T04:19:19.517Z,54.00
2018-06-09T04:20:19.498Z,53.70
2018-06-09T04:21:19.481Z,54.00
2018-06-09T04:22:19.462Z,53.70
2018-06-09T04:23:19.449Z,53.90
2018-06-09T04:24:19.452Z,53.32
2018-06-09T04:25:19.421Z,53.13
2018-06-09T04:26:19.409Z,53.13
2018-06-09T04:27:19.395Z,53.13
2018-06-09T04:28:19.415Z,53.03
2018-06-09T04:29:19.362Z,53.23
2018-06-09T04:30:19.370Z,53.23
2018-06-09T04:31:19.336Z,52.94
2018-06-09T04:32:19.322Z,53.03
2018-06-09T04:33:19.305Z,53.03
2018-06-09T04:34:19.290Z,52.65
2018-06-09T04:35:19.275Z,52.65
2018-06-09T04:36:19.270Z,52.65
2018-06-09T04:37:19.248Z,52.17
2018-06-09T04:38:19.232Z,52.08
2018-06-09T04:39:19.217Z,52.36
2018-06-09T04:40:19.225Z,52.17
2018-06-09T04:41:19.197Z,52.26
2018-06-09T04:42:19.174Z,52.36
2018-06-09T04:43:19.162Z,52.65
2018-06-09T04:44:19.145Z,52.75
2018-06-09T04:45:19.131Z,52.65
2018-06-09T04:46:19.132Z,52.75
2018-06-09T04:47:19.110Z,52.08
2018-06-09T04:48:19.088Z,52.75
2018-06-09T04:49:19.073Z,52.36
2018-06-09T04:50:19.057Z,52.36
2018-06-09T04:51:19.045Z,52.75
2018-06-09T04:52:19.045Z,52.26
2018-06-09T04:53:19.017Z,52.17
2018-06-09T04:54:18.999Z,52.17
2018-06-09T04:55:18.987Z,52.36
2018-06-09T04:56:18.971Z,52.17
2018-06-09T04:57:18.957Z,52.17
2018-06-09T04:58:18.951Z,52.26
2018-06-09T04:59:18.968Z,52.17
2018-06-09T05:00:18.914Z,52.08
2018-06-09T05:01:18.899Z,52.08
2018-06-09T05:02:18.884Z,52.08
2018-06-09T05:03:18.882Z,51.98
2018-06-09T05:04:18.857Z,51.98
2018-06-09T05:05:18.839Z,52.55
2018-06-09T05:06:18.826Z,51.98
2018-06-09T05:07:18.876Z,52.36
2018-06-09T05:08:18.814Z,52.17
2018-06-09T05:09:18.782Z,52.26
2018-06-09T05:10:18.766Z,52.36
2018-06-09T05:11:18.757Z,52.75
2018-06-09T05:12:18.738Z,52.00
2018-06-09T05:13:18.761Z,53.03
2018-06-09T05:14:18.724Z,53.16
2018-06-09T05:15:18.698Z,52.97
2018-06-09T05:16:18.682Z,52.87
2018-06-09T05:17:18.669Z,53.16
2018-06-09T05:18:18.702Z,53.06
2018-06-09T05:19:18.637Z,54.12
2018-06-09T05:20:18.637Z,54.02
2018-06-09T05:21:18.609Z,53.92
2018-06-09T10:31:38.016Z,97.47
2018-06-09T10:32:37.927Z,98.00
2018-06-09T10:33:37.922Z,97.33
2018-06-09T10:34:37.922Z,97.08
2018-06-09T10:35:37.892Z,96.75
2018-06-09T10:36:37.880Z,97.86
2018-06-09T10:37:37.871Z,97.91
2018-06-09T10:38:37.875Z,97.23
2018-06-09T10:39:37.843Z,97.23
2018-06-09T10:40:37.844Z,97.52
2018-06-09T10:41:37.820Z,95.63
2018-06-09T10:42:37.809Z,97.08
2018-06-09T10:43:37.803Z,96.84
2018-06-09T10:44:37.802Z,96.79
2018-06-09T10:45:37.803Z,96.65
2018-06-09T10:46:37.771Z,95.48
2018-06-09T10:47:37.755Z,95.63
2018-06-09T10:48:37.752Z,96.50
2018-06-09T10:49:37.735Z,96.11
2018-06-09T10:50:37.721Z,97.23
2018-06-09T10:51:37.727Z,95.77
2018-06-09T10:52:37.707Z,94.26
2018-06-09T10:53:37.698Z,90.97
2018-06-09T10:54:37.683Z,94.07
2018-06-09T10:55:37.673Z,90.47
2018-06-09T10:56:37.695Z,91.16
2018-06-09T10:57:37.662Z,93.39
2018-06-09T10:58:37.644Z,93.44
2018-06-09T10:59:37.639Z,94.95
2018-06-09T11:00:37.628Z,94.42
2018-06-09T11:01:37.616Z,92.42
2018-06-09T11:02:37.617Z,91.25
2018-06-09T11:03:37.598Z,89.15
2018-06-09T11:04:37.585Z,91.15
2018-06-09T11:05:37.575Z,93.05
2018-06-09T11:06:37.567Z,94.66
2018-06-09T11:07:37.567Z,95.57
2018-06-09T11:08:37.547Z,92.22
2018-06-09T11:09:37.537Z,91.40
2018-06-09T11:10:37.531Z,91.05
2018-06-09T11:11:37.519Z,90.91
2018-06-09T11:12:37.525Z,93.25
2018-06-09T11:13:37.498Z,94.65
2018-06-09T11:14:37.494Z,92.61
2018-06-09T11:15:37.478Z,91.88
2018-06-09T11:16:37.477Z,91.15
2018-06-09T11:17:37.476Z,87.02
2018-06-09T11:18:37.448Z,85.89
2018-06-09T11:19:37.442Z,86.77
2018-06-09T11:20:37.433Z,84.33
2018-06-09T11:21:37.423Z,88.24
2018-06-09T11:22:37.414Z,90.77
2018-06-09T11:23:37.418Z,92.52
2018-06-09T11:24:37.405Z,94.32
2018-06-09T11:25:37.385Z,93.49
2018-06-09T11:26:37.376Z,91.11
2018-06-09T11:27:37.386Z,89.93
2018-06-09T11:28:37.355Z,87.30
2018-06-09T11:29:37.363Z,83.71
2018-06-09T11:30:37.337Z,83.75
2018-06-09T11:31:37.328Z,89.07
2018-06-09T11:32:37.320Z,89.40
2018-06-09T11:33:37.327Z,86.88
2018-06-09T11:34:37.300Z,87.70
2018-06-09T11:35:37.294Z,88.39
2018-06-09T11:36:37.281Z,86.39
2018-06-09T11:37:37.265Z,86.47
2018-06-09T11:38:37.260Z,88.23
2018-06-09T11:39:37.264Z,79.22
2018-06-09T11:40:37.247Z,74.10
2018-06-09T11:41:37.236Z,79.35
2018-06-09T11:42:37.225Z,79.47
2018-06-09T11:43:37.219Z,81.92
2018-06-09T11:44:37.216Z,84.45
2018-06-09T11:45:37.195Z,84.35
2018-06-09T11:46:37.185Z,86.82
2018-06-09T11:47:37.181Z,84.45
2018-06-09T11:48:37.174Z,80.30
2018-06-09T11:49:37.166Z,79.57
2018-06-09T11:50:37.179Z,83.85
2018-06-09T11:51:37.144Z,81.51
2018-06-09T11:52:37.128Z,83.79
2018-06-09T11:53:37.123Z,78.30
2018-06-09T11:54:37.125Z,79.12
2018-06-09T11:55:37.110Z,80.58
2018-06-09T11:56:37.097Z,75.52
2018-06-09T11:57:37.086Z,77.31
2018-06-09T11:58:37.146Z,81.79
2018-06-09T11:59:37.078Z,81.69
2018-06-09T12:00:37.057Z,79.30
2018-06-09T12:01:37.048Z,84.66
2018-06-09T12:02:37.035Z,71.05
2018-06-09T12:03:37.030Z,69.39
2018-06-09T12:04:37.038Z,70.47
2018-06-09T12:05:37.019Z,71.08
2018-06-09T12:06:37.003Z,70.79
2018-06-09T12:07:36.988Z,69.59
2018-06-09T12:08:36.985Z,78.45
2018-06-09T12:09:36.997Z,74.01
2018-06-09T12:10:36.963Z,72.12
2018-06-09T12:11:36.955Z,73.46
2018-06-09T12:12:36.946Z,70.04
2018-06-09T12:13:36.937Z,69.43
2018-06-09T12:14:36.932Z,69.17
2018-06-09T12:15:36.936Z,72.06
2018-06-09T12:16:36.911Z,69.49
2018-06-09T12:17:36.901Z,69.95
2018-06-09T12:18:36.891Z,64.94
2018-06-09T12:19:36.884Z,64.78
2018-06-09T12:20:36.875Z,69.07
2018-06-09T12:21:36.876Z,68.55
2018-06-09T12:22:36.870Z,70.95
2018-06-09T12:23:36.848Z,69.82
2018-06-09T12:24:36.846Z,66.73
2018-06-09T12:25:36.830Z,65.46
2018-06-09T12:26:36.838Z,66.76
2018-06-09T12:27:36.819Z,67.32
2018-06-09T12:28:36.807Z,68.09
2018-06-09T12:29:36.796Z,65.14
2018-06-09T12:30:36.786Z,65.82
2018-06-09T12:31:36.797Z,65.53
2018-06-09T12:32:36.793Z,66.50
2018-06-09T12:33:36.757Z,64.03
2018-06-09T12:34:36.751Z,64.48
2018-06-09T12:35:36.745Z,67.86
2018-06-09T12:36:36.751Z,75.04
2018-06-09T12:37:36.728Z,70.26
2018-06-09T12:38:36.717Z,70.10
2018-06-09T12:39:36.710Z,71.92
2018-06-09T12:40:36.704Z,71.66
2018-06-09T12:41:36.713Z,69.52
2018-06-09T12:42:36.684Z,73.57
2018-06-09T12:43:36.685Z,73.28
2018-06-09T12:44:36.681Z,69.62
2018-06-09T12:45:36.654Z,69.84
2018-06-09T12:46:36.661Z,68.35
2018-06-09T12:47:36.647Z,71.72
2018-06-09T12:48:36.678Z,73.77
2018-06-09T12:49:36.625Z,76.45
2018-06-09T12:50:36.617Z,80.97
2018-06-09T12:51:36.676Z,77.99
2018-06-09T12:52:36.599Z,77.27
2018-06-09T12:53:36.588Z,77.27
2018-06-09T12:54:36.581Z,76.53
2018-06-09T12:55:36.574Z,74.72
2018-06-09T12:56:36.583Z,71.05
2018-06-09T12:57:36.559Z,77.72
2018-06-09T12:58:36.547Z,73.78
2018-06-09T12:59:36.540Z,70.98
2018-06-09T13:00:36.540Z,73.74
2018-06-09T13:01:36.521Z,74.04
2018-06-09T13:02:36.525Z,70.07
2018-06-09T13:03:36.504Z,68.90
2018-06-09T13:04:36.499Z,69.98
2018-06-09T13:05:36.489Z,70.04
2018-06-09T13:06:36.480Z,68.52
2018-06-09T13:07:36.469Z,65.72
2018-06-09T13:08:36.479Z,63.57
2018-06-09T13:09:36.455Z,64.58
2018-06-09T13:10:36.447Z,64.75
2018-06-09T13:11:36.439Z,71.11
2018-06-09T13:12:36.430Z,73.61
2018-06-09T13:13:36.430Z,69.53
2018-06-09T13:14:36.415Z,70.79
2018-06-09T13:15:36.407Z,69.72
2018-06-09T13:16:36.404Z,73.17
2018-06-09T13:17:36.391Z,73.22
2018-06-09T13:18:36.398Z,78.28
2018-06-09T13:19:36.433Z,73.45
2018-06-09T13:20:36.371Z,70.47
2018-06-09T13:21:36.361Z,68.13
2018-06-09T13:22:36.361Z,69.75
2018-06-09T13:23:36.353Z,70.82
2018-06-09T13:24:36.354Z,68.49
2018-06-09T13:25:36.331Z,67.19
2018-06-09T13:26:36.322Z,62.01
2018-06-09T13:27:36.317Z,62.18
2018-06-09T13:28:36.314Z,64.51
2018-06-09T13:29:36.335Z,63.90
2018-06-09T13:30:36.312Z,63.67
2018-06-09T13:31:36.286Z,64.39
2018-06-09T13:32:36.279Z,65.43
2018-06-09T13:33:36.271Z,64.45
2018-06-09T13:34:36.265Z,62.40
2018-06-09T13:35:36.277Z,64.22
2018-06-09T13:36:36.253Z,63.83
2018-06-09T13:37:36.241Z,62.66
2018-06-09T13:38:36.233Z,61.88
2018-06-09T13:39:36.234Z,60.78
2018-06-09T13:40:36.228Z,60.39
2018-06-09T13:41:36.229Z,61.10
2018-06-09T13:42:36.213Z,62.53
2018-06-09T13:43:36.201Z,63.87
2018-06-09T13:44:36.194Z,63.84
2018-06-09T13:45:36.223Z,62.60
2018-06-09T13:46:36.178Z,64.42
2018-06-09T13:47:36.179Z,63.64
2018-06-09T13:48:36.167Z,61.66
2018-06-09T13:49:36.158Z,61.89
2018-06-09T13:50:36.158Z,60.78
2018-06-09T13:51:36.157Z,59.93
2018-06-09T13:52:36.147Z,59.59
2018-06-09T13:53:36.133Z,58.11
2018-06-09T13:54:36.175Z,57.06
2018-06-09T13:55:36.121Z,58.04
2018-06-09T13:56:36.152Z,59.44
2018-06-09T13:57:36.110Z,57.00
2018-06-09T13:58:36.105Z,60.49
2018-06-09T13:59:36.097Z,58.91
2018-06-09T14:00:36.090Z,57.60
2018-06-09T14:01:36.131Z,56.45
2018-06-09T14:02:36.079Z,58.40
2018-06-09T14:03:36.072Z,57.74
2018-06-09T14:04:36.072Z,58.98
2018-06-09T14:05:36.065Z,58.52
2018-06-09T14:06:36.053Z,56.57
2018-06-09T14:07:36.072Z,58.13
2018-06-09T14:08:36.046Z,57.28
2018-06-09T14:09:36.039Z,59.45
2018-06-09T14:10:36.039Z,60.39
2018-06-09T14:11:36.028Z,60.22
2018-06-09T14:12:36.024Z,58.23
2018-06-09T14:13:36.032Z,57.70
2018-06-09T14:14:36.014Z,57.70
2018-06-09T14:15:36.008Z,56.85
2018-06-09T14:16:36.010Z,58.90
2018-06-09T14:17:35.999Z,57.67
2018-06-09T14:18:36.004Z,56.52
2018-06-09T14:19:35.993Z,56.52
2018-06-09T14:20:35.985Z,55.67
2018-06-09T14:21:35.986Z,56.50
2018-06-09T14:22:35.980Z,55.94
2018-06-09T14:23:35.989Z,56.70
2018-06-09T14:24:35.967Z,56.54
2018-06-09T14:25:35.961Z,57.45
2018-06-09T14:26:35.954Z,56.30
2018-06-09T14:27:35.951Z,55.08
2018-06-09T14:28:35.962Z,56.16
2018-06-09T14:29:35.943Z,55.38
2018-06-09T14:30:35.939Z,55.99
2018-06-09T14:31:35.933Z,52.59
2018-06-09T14:32:35.939Z,53.67
2018-06-09T14:33:35.938Z,54.60
2018-06-09T14:34:35.933Z,56.43
2018-06-09T14:35:35.921Z,57.59
2018-06-09T14:36:35.917Z,57.28
2018-06-09T14:37:35.912Z,56.93
2018-06-09T14:38:35.916Z,58.50
2018-06-09T14:39:35.903Z,58.01
2018-06-09T14:40:35.900Z,57.57
2018-06-09T14:41:35.894Z,57.31
2018-06-09T14:42:35.889Z,58.33
2018-06-09T14:43:35.920Z,56.27
2018-06-09T14:44:35.885Z,56.60
2018-06-09T14:45:35.880Z,56.04
2018-06-09T14:46:35.874Z,56.04
2018-06-09T14:47:35.876Z,56.26
2018-06-09T14:48:35.868Z,55.60
2018-06-09T14:49:35.879Z,53.08
2018-06-09T14:50:35.866Z,54.11
2018-06-09T14:51:35.857Z,56.25
2018-06-09T14:52:35.852Z,57.56
2018-06-09T14:53:35.851Z,57.59
2018-06-09T14:54:35.846Z,57.62
2018-06-09T14:55:35.867Z,57.13
2018-06-09T14:56:35.840Z,56.30
2018-06-09T14:57:35.834Z,56.40
2018-06-09T14:58:35.838Z,55.76
2018-06-09T14:59:35.830Z,56.18
2018-06-09T15:00:35.836Z,55.79
2018-06-09T15:01:35.830Z,57.65
2018-06-09T15:02:35.818Z,58.89
2018-06-09T15:03:35.821Z,58.86
2018-06-09T15:04:35.811Z,60.06
2018-06-09T15:05:35.827Z,58.92
2018-06-09T15:06:35.810Z,59.51
2018-06-09T15:07:35.803Z,58.50
2018-06-09T15:08:35.796Z,58.30
2018-06-09T15:09:35.812Z,58.76
2018-06-09T15:10:35.799Z,59.12
2018-06-09T15:11:35.787Z,59.34
2018-06-09T15:12:35.790Z,59.12
2018-06-09T15:13:35.775Z,59.64
2018-06-09T15:14:35.774Z,58.66
2018-06-09T15:15:35.786Z,58.76
2018-06-09T15:16:35.769Z,58.07
2018-06-09T15:17:35.761Z,58.73
2018-06-09T15:18:35.748Z,58.86
2018-06-09T15:19:35.816Z,58.40
2018-06-09T15:20:35.776Z,59.12
2018-06-09T15:21:35.738Z,58.14
2018-06-09T15:22:35.791Z,57.98
2018-06-09T15:23:35.729Z,59.41
2018-06-09T15:24:35.727Z,59.86
2018-06-09T15:25:35.720Z,57.25
2018-06-09T15:26:35.734Z,57.06
2018-06-09T15:27:35.711Z,58.31
2018-06-09T15:28:35.715Z,61.21
2018-06-09T15:29:35.699Z,61.01
2018-06-09T15:30:35.697Z,62.38
2018-06-09T15:31:35.688Z,62.82
2018-06-09T15:32:35.695Z,61.50
2018-06-09T15:33:35.677Z,62.31
2018-06-09T15:34:35.666Z,60.16
2018-06-09T15:35:35.662Z,60.29
2018-06-09T15:36:35.664Z,59.72
2018-06-09T15:37:35.668Z,56.60
2018-06-09T15:38:35.665Z,56.68
2018-06-09T15:39:35.644Z,54.97
2018-06-09T15:40:35.641Z,52.96
2018-06-09T15:41:35.631Z,51.93
2018-06-09T15:42:35.908Z,52.23
2018-06-09T15:43:35.627Z,54.83
2018-06-09T15:44:35.620Z,55.91
2018-06-09T15:45:35.617Z,55.42
2018-06-09T15:46:35.619Z,57.03
2018-06-09T15:47:35.607Z,56.08
2018-06-09T15:48:35.624Z,55.03
2018-06-09T15:49:35.599Z,54.21
2018-06-09T15:50:35.604Z,54.50
2018-06-09T15:51:35.591Z,54.82
2018-06-09T15:52:35.590Z,54.85
2018-06-09T15:53:35.642Z,53.20
2018-06-09T15:54:35.608Z,53.03
2018-06-09T15:55:35.580Z,54.50
2018-06-09T15:56:35.573Z,53.81
2018-06-09T15:57:35.568Z,51.90
2018-06-09T15:58:35.573Z,50.81
2018-06-09T15:59:35.580Z,48.96
2018-06-09T16:00:35.561Z,51.17
2018-06-09T16:01:35.565Z,51.37
2018-06-09T16:02:35.554Z,53.77
2018-06-09T16:03:35.553Z,48.94
2018-06-09T16:04:35.562Z,50.54
2018-06-09T16:05:35.549Z,52.27
2018-06-09T16:06:35.551Z,55.69
2018-06-09T16:07:35.550Z,55.52
2018-06-09T16:08:35.544Z,55.40
2018-06-09T16:09:35.554Z,55.13
2018-06-09T16:10:35.533Z,54.54
2018-06-09T16:11:35.540Z,54.01
2018-06-09T16:12:35.534Z,52.33
2018-06-09T16:13:35.533Z,52.33
2018-06-09T16:14:35.528Z,52.03
2018-06-09T16:15:35.562Z,51.54
2018-06-09T16:16:35.525Z,50.29
2018-06-09T16:17:35.524Z,51.71
2018-06-09T16:18:35.521Z,54.54
2018-06-09T16:19:35.524Z,55.62
2018-06-09T16:20:35.515Z,55.00
2018-06-09T16:21:35.524Z,54.42
2018-06-09T16:22:35.510Z,55.20
2018-06-09T16:23:35.513Z,55.62
2018-06-09T16:24:35.510Z,56.27
2018-06-09T16:25:35.507Z,59.41
2018-06-09T16:26:35.516Z,59.25
2018-06-09T16:27:35.500Z,57.74
2018-06-09T16:28:35.500Z,56.90
2018-06-09T16:29:35.494Z,58.89
2018-06-09T16:30:35.494Z,57.92
2018-06-09T16:31:35.488Z,60.49
2018-06-09T16:32:35.541Z,61.08
2018-06-09T16:33:35.480Z,63.02
2018-06-09T16:34:35.484Z,61.04
2018-06-09T16:35:35.475Z,61.37
2018-06-09T16:36:35.480Z,62.63
2018-06-09T16:37:35.480Z,60.16
2018-06-09T16:38:35.498Z,60.75
2018-06-09T16:39:35.463Z,59.77
2018-06-09T16:40:35.451Z,61.21
2018-06-09T16:41:35.459Z,61.44
2018-06-09T16:42:35.436Z,63.32
2018-06-09T16:43:35.432Z,65.95
2018-06-09T16:44:35.429Z,65.46
2018-06-09T16:45:35.456Z,67.67
2018-06-09T16:46:35.429Z,71.07
2018-06-09T16:47:35.456Z,70.26
2018-06-09T16:48:35.403Z,73.46
2018-06-09T16:49:35.396Z,74.15
2018-06-09T16:50:35.395Z,74.15
2018-06-09T16:51:35.402Z,72.30
2018-06-09T16:52:35.377Z,73.95
2018-06-09T16:53:35.367Z,74.73
2018-06-09T16:54:35.381Z,72.78
2018-06-09T16:55:35.360Z,74.21
2018-06-09T16:56:35.352Z,78.67
2018-06-09T16:57:35.354Z,76.64
2018-06-09T16:58:35.335Z,76.05
2018-06-09T16:59:35.329Z,76.15
2018-06-09T17:00:35.318Z,75.67
2018-06-09T17:01:35.315Z,74.69
2018-06-09T17:02:35.588Z,77.41
2018-06-09T17:03:35.294Z,76.64
2018-06-09T17:04:35.288Z,75.95
2018-06-09T17:05:35.277Z,76.54
2018-06-09T17:06:35.274Z,76.92
2018-06-09T17:07:35.261Z,76.83
2018-06-09T17:08:35.269Z,76.92
2018-06-09T17:09:35.241Z,76.92
2018-06-09T17:10:35.237Z,78.09
2018-06-09T17:11:35.226Z,79.45
2018-06-09T17:12:35.218Z,79.45
2018-06-09T17:13:35.211Z,78.34
2018-06-09T17:14:35.208Z,79.41
2018-06-09T17:15:35.192Z,79.12
2018-06-09T17:16:35.181Z,80.38
2018-06-09T17:17:35.173Z,80.38
2018-06-09T17:18:35.187Z,80.58
2018-06-09T17:19:35.155Z,79.80
2018-06-09T17:20:35.145Z,80.58
2018-06-09T17:21:35.151Z,81.35
2018-06-09T17:22:35.138Z,81.74
2018-06-09T17:23:35.121Z,82.32
2018-06-09T17:24:35.120Z,80.54
2018-06-09T17:25:35.101Z,83.00
2018-06-09T17:26:35.092Z,81.80
2018-06-09T17:27:35.077Z,82.23
2018-06-09T17:28:35.072Z,83.59
2018-06-09T17:29:35.077Z,82.62
2018-06-09T17:30:35.052Z,82.23
2018-06-09T17:31:35.045Z,83.10
2018-06-09T17:32:35.033Z,84.91
2018-06-09T17:33:35.037Z,83.54
2018-06-09T17:34:35.016Z,83.45
2018-06-09T17:35:35.004Z,83.74
2018-06-09T17:36:35.000Z,84.52
2018-06-09T17:37:34.989Z,84.91
2018-06-09T17:38:34.994Z,84.32
2018-06-09T17:39:34.966Z,85.19
2018-06-09T17:40:34.956Z,85.39
2018-06-09T17:41:34.945Z,85.88
2018-06-09T17:42:34.937Z,85.10
2018-06-09T17:43:34.935Z,86.26
2018-06-09T17:44:34.916Z,85.15
2018-06-09T17:45:34.915Z,85.88
2018-06-09T17:46:34.897Z,87.58
2018-06-09T17:47:34.887Z,87.19
2018-06-09T17:48:34.895Z,87.19
2018-06-09T17:49:34.870Z,87.38
2018-06-09T17:50:34.857Z,88.16
2018-06-09T17:51:34.848Z,88.16
2018-06-09T17:52:34.841Z,87.09
2018-06-09T17:53:34.845Z,87.09
2018-06-09T17:54:34.817Z,87.48
2018-06-09T17:55:34.816Z,87.58
2018-06-09T17:56:34.798Z,88.65
2018-06-09T17:57:34.784Z,88.45
2018-06-09T17:58:34.780Z,88.55
2018-06-09T17:59:34.783Z,88.45
2018-06-09T18:00:34.755Z,89.42
2018-06-09T18:01:34.749Z,88.45